createdAt,value
2018-06-24T00:00:28.788Z,13.6
2018-06-24T00:01:30.262Z,13.5
2018-06-24T00:02:31.611Z,13.7
2018-06-24T00:03:32.964Z,13.6
2018-06-24T00:04:34.365Z,13.6
2018-06-24T00:05:35.688Z,13.6
2018-06-24T00:06:37.042Z,13.5
2018-06-24T00:07:38.398Z,13.5
2018-06-24T00:08:39.777Z,13.6
2018-06-24T00:09:41.129Z,13.5
2018-06-24T00:10:42.492Z,13.6
2018-06-24T00:11:43.842Z,13.6
2018-06-24T00:12:45.193Z,13.6
2018-06-24T00:13:46.583Z,13.6
2018-06-24T00:14:47.932Z,13.6
2018-06-24T00:15:49.333Z,13.6
2018-06-24T00:16:50.723Z,13.6
2018-06-24T00:17:52.088Z,13.5
2018-06-24T00:18:53.463Z,13.6
2018-06-24T00:19:54.819Z,13.6
2018-06-24T00:20:56.174Z,13.7
2018-06-24T00:21:57.539Z,13.5
2018-06-24T00:22:58.903Z,13.5
2018-06-24T00:24:00.255Z,13.6
2018-06-24T00:25:01.627Z,13.5
2018-06-24T00:26:02.980Z,13.5
2018-06-24T00:27:04.339Z,13.5
2018-06-24T00:28:05.694Z,13.5
2018-06-24T00:29:07.079Z,13.6
2018-06-24T00:30:08.437Z,13.5
2018-06-24T00:31:09.794Z,13.6
2018-06-24T00:32:11.177Z,13.6
2018-06-24T00:33:12.504Z,13.5
2018-06-24T00:34:13.867Z,13.5
2018-06-24T00:35:15.219Z,13.5
2018-06-24T00:36:16.589Z,13.5
2018-06-24T00:37:18.036Z,13.6
2018-06-24T00:38:19.317Z,13.5
2018-06-24T00:39:20.684Z,13.6
2018-06-24T00:40:22.043Z,13.5
2018-06-24T00:41:23.404Z,13.5
2018-06-24T00:42:24.769Z,13.5
2018-06-24T00:43:26.139Z,13.4
2018-06-24T00:44:27.495Z,13.5
2018-06-24T00:45:28.852Z,13.5
2018-06-24T00:46:30.224Z,13.4
2018-06-24T00:47:31.597Z,13.4
2018-06-24T00:48:32.963Z,13.3
2018-06-24T00:49:34.319Z,13.3
2018-06-24T00:50:35.678Z,13.4
2018-06-24T00:51:37.037Z,13.4
2018-06-24T00:52:38.397Z,13.4
2018-06-24T00:53:39.749Z,13.3
2018-06-24T00:54:41.109Z,13.4
2018-06-24T00:55:42.470Z,13.4
2018-06-24T00:56:43.817Z,13.4
2018-06-24T00:57:45.182Z,13.3
2018-06-24T00:58:46.554Z,13.2
2018-06-24T00:59:47.915Z,13.2
2018-06-24T01:00:49.300Z,13.2
2018-06-24T01:01:50.667Z,13.2
2018-06-24T01:02:52.020Z,13.2
2018-06-24T01:03:53.379Z,13.2
2018-06-24T01:04:54.742Z,13.1
2018-06-24T01:05:56.146Z,13.1
2018-06-24T01:06:57.488Z,13.1
2018-06-24T01:07:58.874Z,13.1
2018-06-24T01:09:00.211Z,13.1
2018-06-24T01:10:01.580Z,13.1
2018-06-24T01:11:02.943Z,13.0
2018-06-24T01:12:04.298Z,13.1
2018-06-24T01:13:05.665Z,13.1
2018-06-24T01:14:07.018Z,13.1
2018-06-24T01:15:08.381Z,13.1
2018-06-24T01:16:09.747Z,13.1
2018-06-24T01:17:11.103Z,13.0
2018-06-24T01:18:12.477Z,13.0
2018-06-24T01:19:13.845Z,13.0
2018-06-24T01:20:15.208Z,13.0
2018-06-24T01:21:16.578Z,13.0
2018-06-24T01:22:17.934Z,13.0
2018-06-24T01:23:19.341Z,12.9
2018-06-24T01:24:20.693Z,12.9
2018-06-24T01:25:22.053Z,13.0
2018-06-24T01:26:23.433Z,12.9
2018-06-24T01:27:24.799Z,12.9
2018-06-24T01:28:26.161Z,12.8
2018-06-24T01:29:27.508Z,12.9
2018-06-24T01:30:28.860Z,12.9
2018-06-24T01:31:30.216Z,12.9
2018-06-24T01:32:31.608Z,12.8
2018-06-24T01:33:32.965Z,12.9
2018-06-24T01:34:34.319Z,12.8
2018-06-24T01:35:35.677Z,12.8
2018-06-24T01:36:37.055Z,12.8
2018-06-24T01:37:38.406Z,12.8
2018-06-24T01:38:39.764Z,12.7
2018-06-24T01:39:41.269Z,12.8
2018-06-24T01:40:42.630Z,12.7
2018-06-24T01:41:43.985Z,12.7
2018-06-24T01:42:45.353Z,12.6
2018-06-24T01:43:46.715Z,12.7
2018-06-24T01:44:48.060Z,12.7
2018-06-24T01:45:49.448Z,12.6
2018-06-24T01:46:50.809Z,12.6
2018-06-24T01:47:52.172Z,12.6
2018-06-24T01:48:53.520Z,12.6
2018-06-24T01:49:54.885Z,12.5
2018-06-24T01:50:56.245Z,12.5
2018-06-24T01:51:57.594Z,12.5
2018-06-24T01:52:58.965Z,12.5
2018-06-24T01:54:00.319Z,12.5
2018-06-24T01:55:01.719Z,12.5
2018-06-24T01:56:03.063Z,12.5
2018-06-24T01:57:04.434Z,12.4
2018-06-24T01:58:05.779Z,12.4
2018-06-24T01:59:07.151Z,12.4
2018-06-24T02:00:08.510Z,12.3
2018-06-24T02:01:09.868Z,12.3
2018-06-24T02:02:11.224Z,12.3
2018-06-24T02:03:12.590Z,12.2
2018-06-24T02:04:13.935Z,12.3
2018-06-24T02:05:15.298Z,12.3
2018-06-24T02:06:16.610Z,12.2
2018-06-24T02:07:17.955Z,12.2
2018-06-24T02:08:20.295Z,12.2
2018-06-24T02:09:21.657Z,12.2
2018-06-24T02:10:23.016Z,12.2
2018-06-24T02:11:24.376Z,12.1
2018-06-24T02:12:25.735Z,12.1
2018-06-24T02:13:27.095Z,12.1
2018-06-24T02:14:28.439Z,12.1
2018-06-24T02:15:29.800Z,12.1
2018-06-24T02:16:31.164Z,12.2
2018-06-24T02:17:32.520Z,12.1
2018-06-24T02:18:33.878Z,12.1
2018-06-24T02:19:35.256Z,12.0
2018-06-24T02:20:36.619Z,12.0
2018-06-24T02:21:37.981Z,12.0
2018-06-24T02:22:39.343Z,11.9
2018-06-24T02:23:40.699Z,12.0
2018-06-24T02:24:42.064Z,11.9
2018-06-24T02:25:43.421Z,11.9
2018-06-24T02:26:44.769Z,11.9
2018-06-24T02:27:46.124Z,12.0
2018-06-24T02:28:47.514Z,11.9
2018-06-24T02:29:48.853Z,11.9
2018-06-24T02:30:50.252Z,11.9
2018-06-24T02:31:51.610Z,11.9
2018-06-24T02:32:52.959Z,11.9
2018-06-24T02:33:54.320Z,11.9
2018-06-24T02:34:55.683Z,11.9
2018-06-24T02:35:57.066Z,11.8
2018-06-24T02:36:58.429Z,11.8
2018-06-24T02:37:59.775Z,11.8
2018-06-24T02:39:01.145Z,11.8
2018-06-24T02:40:02.496Z,11.8
2018-06-24T02:41:03.889Z,11.8
2018-06-24T02:42:05.247Z,11.8
2018-06-24T02:43:06.606Z,11.7
2018-06-24T02:44:07.965Z,11.8
2018-06-24T02:45:09.324Z,11.7
2018-06-24T02:46:10.680Z,11.7
2018-06-24T02:47:12.054Z,11.6
2018-06-24T02:48:13.396Z,11.6
2018-06-24T02:49:14.779Z,11.7
2018-06-24T02:50:16.160Z,11.6
2018-06-24T02:51:17.504Z,11.6
2018-06-24T02:52:18.905Z,11.6
2018-06-24T02:53:20.250Z,11.6
2018-06-24T02:54:21.604Z,11.7
2018-06-24T02:55:22.965Z,11.6
2018-06-24T02:56:24.320Z,11.6
2018-06-24T02:57:25.695Z,11.6
2018-06-24T02:58:27.071Z,11.5
2018-06-24T02:59:28.427Z,11.6
2018-06-24T03:00:29.775Z,11.5
2018-06-24T03:01:31.172Z,11.6
2018-06-24T03:02:32.535Z,11.6
2018-06-24T03:03:33.892Z,11.6
2018-06-24T03:04:35.259Z,11.5
2018-06-24T03:05:36.650Z,11.5
2018-06-24T03:06:38.001Z,11.5
2018-06-24T03:07:39.351Z,11.5
2018-06-24T03:08:40.740Z,11.5
2018-06-24T03:09:42.096Z,11.5
2018-06-24T03:10:43.456Z,11.6
2018-06-24T03:11:44.822Z,11.4
2018-06-24T03:12:46.174Z,11.5
2018-06-24T03:13:47.552Z,11.4
2018-06-24T03:14:48.925Z,11.4
2018-06-24T03:15:50.261Z,11.4
2018-06-24T03:16:51.625Z,11.5
2018-06-24T03:17:52.981Z,11.4
2018-06-24T03:18:54.351Z,11.4
2018-06-24T03:19:55.720Z,11.5
2018-06-24T03:20:57.111Z,11.5
2018-06-24T03:21:58.479Z,11.4
2018-06-24T03:22:59.834Z,11.5
2018-06-24T03:24:01.189Z,11.4
2018-06-24T03:25:02.546Z,11.4
2018-06-24T03:26:03.900Z,11.4
2018-06-24T03:27:05.287Z,11.4
2018-06-24T03:28:06.689Z,11.4
2018-06-24T03:29:08.049Z,11.4
2018-06-24T03:30:09.405Z,11.4
2018-06-24T03:31:10.796Z,11.4
2018-06-24T03:32:12.179Z,11.3
2018-06-24T03:33:13.601Z,11.4
2018-06-24T03:34:14.976Z,11.4
2018-06-24T03:35:16.345Z,11.3
2018-06-24T03:36:17.760Z,11.4
2018-06-24T03:37:19.132Z,11.4
2018-06-24T03:38:20.486Z,11.4
2018-06-24T03:39:21.865Z,11.4
2018-06-24T03:40:23.279Z,11.4
2018-06-24T03:41:24.605Z,11.4
2018-06-24T03:42:25.967Z,11.3
2018-06-24T03:43:27.345Z,11.4
2018-06-24T03:44:28.702Z,11.4
2018-06-24T03:45:30.080Z,11.4
2018-06-24T03:46:31.441Z,11.4
2018-06-24T03:47:32.820Z,11.5
2018-06-24T03:48:34.175Z,11.3
2018-06-24T03:49:35.542Z,11.5
2018-06-24T03:50:36.931Z,11.4
2018-06-24T03:51:38.280Z,11.4
2018-06-24T03:52:39.632Z,11.4
2018-06-24T03:53:40.991Z,11.4
2018-06-24T03:54:42.356Z,11.4
2018-06-24T03:55:43.720Z,11.5
2018-06-24T03:56:45.100Z,11.5
2018-06-24T03:57:46.524Z,11.5
2018-06-24T03:58:47.897Z,11.5
2018-06-24T03:59:49.281Z,11.5
2018-06-24T04:00:50.652Z,11.5
2018-06-24T04:01:52.022Z,11.6
2018-06-24T04:02:53.377Z,11.6
2018-06-24T04:03:54.745Z,11.6
2018-06-24T04:04:56.116Z,11.6
2018-06-24T04:05:57.512Z,11.6
2018-06-24T04:06:58.880Z,11.6
2018-06-24T04:08:00.249Z,11.7
2018-06-24T04:09:01.616Z,11.7
2018-06-24T04:10:02.967Z,11.6
2018-06-24T04:11:04.330Z,11.7
2018-06-24T04:12:05.708Z,11.7
2018-06-24T04:13:07.063Z,11.8
2018-06-24T04:14:08.432Z,11.8
2018-06-24T04:15:09.801Z,11.8
2018-06-24T04:16:11.170Z,12.0
2018-06-24T04:17:12.529Z,12.0
2018-06-24T04:18:13.886Z,11.9
2018-06-24T04:19:15.259Z,12.0
2018-06-24T04:20:16.647Z,12.0
2018-06-24T04:21:18.441Z,12.0
2018-06-24T04:22:20.386Z,12.1
2018-06-24T04:23:21.745Z,12.0
2018-06-24T04:24:23.102Z,12.1
2018-06-24T04:25:24.516Z,12.1
2018-06-24T04:26:25.877Z,12.1
2018-06-24T04:27:27.240Z,12.2
2018-06-24T04:28:28.601Z,12.3
2018-06-24T04:29:29.977Z,12.3
2018-06-24T04:30:31.337Z,12.3
2018-06-24T04:31:32.700Z,12.4
2018-06-24T04:32:34.135Z,12.4
2018-06-24T04:33:35.534Z,12.4
2018-06-24T04:34:36.880Z,12.5
2018-06-24T04:35:38.266Z,12.5
2018-06-24T04:36:39.641Z,12.6
2018-06-24T04:37:40.997Z,12.5
2018-06-24T04:38:42.367Z,12.6
2018-06-24T04:39:43.746Z,12.5
2018-06-24T04:40:45.107Z,12.6
2018-06-24T04:41:46.473Z,12.7
2018-06-24T04:42:47.843Z,12.6
2018-06-24T04:43:49.235Z,12.6
2018-06-24T04:44:50.575Z,12.7
2018-06-24T04:45:51.941Z,12.7
2018-06-24T04:46:53.305Z,12.7
2018-06-24T04:47:54.668Z,12.7
2018-06-24T04:48:56.037Z,12.8
2018-06-24T04:49:57.407Z,12.8
2018-06-24T04:50:58.765Z,12.8
2018-06-24T04:52:00.139Z,12.9
2018-06-24T04:53:01.497Z,12.8
2018-06-24T04:54:02.867Z,12.8
2018-06-24T04:55:04.260Z,12.8
2018-06-24T04:56:05.623Z,12.9
2018-06-24T04:57:06.981Z,12.8
2018-06-24T04:58:08.355Z,12.9
2018-06-24T04:59:09.720Z,12.9
2018-06-24T05:00:11.082Z,12.9
2018-06-24T05:01:12.446Z,12.9
2018-06-24T05:02:13.821Z,12.9
2018-06-24T05:03:15.177Z,12.9
2018-06-24T05:04:16.547Z,12.9
2018-06-24T05:05:17.915Z,13.0
2018-06-24T05:06:19.832Z,12.9
2018-06-24T05:07:21.271Z,13.0
2018-06-24T05:08:22.667Z,13.0
2018-06-24T05:09:24.033Z,13.0
2018-06-24T05:10:25.522Z,13.0
2018-06-24T05:11:26.898Z,13.0
2018-06-24T05:12:28.275Z,13.0
2018-06-24T05:13:29.637Z,13.1
2018-06-24T05:14:31.003Z,13.1
2018-06-24T05:15:32.368Z,13.1
2018-06-24T05:16:33.743Z,13.2
2018-06-24T05:17:35.111Z,13.2
2018-06-24T05:18:36.481Z,13.3
2018-06-24T05:19:37.846Z,13.2
2018-06-24T05:20:39.213Z,13.2
2018-06-24T05:21:40.587Z,13.2
2018-06-24T05:22:41.971Z,13.2
2018-06-24T05:23:43.337Z,13.2
2018-06-24T05:24:44.699Z,13.3
2018-06-24T05:25:46.063Z,13.4
2018-06-24T05:26:47.434Z,13.4
2018-06-24T05:27:48.806Z,13.4
2018-06-24T05:28:50.218Z,13.4
2018-06-24T05:29:51.581Z,13.4
2018-06-24T05:30:52.953Z,13.5
2018-06-24T05:31:54.326Z,13.4
2018-06-24T05:32:55.686Z,13.6
2018-06-24T05:33:57.052Z,13.6
2018-06-24T05:34:58.428Z,13.6
2018-06-24T05:35:59.785Z,13.7
2018-06-24T05:37:01.159Z,13.6
2018-06-24T05:38:02.531Z,13.7
2018-06-24T05:39:03.959Z,13.7
2018-06-24T05:40:05.312Z,13.7
2018-06-24T05:41:06.685Z,13.6
2018-06-24T05:42:08.056Z,13.8
2018-06-24T05:43:09.504Z,13.8
2018-06-24T05:44:10.811Z,13.8
2018-06-24T05:45:12.176Z,13.8
2018-06-24T05:46:13.539Z,13.8
2018-06-24T05:47:14.901Z,13.9
2018-06-24T05:48:16.273Z,13.9
2018-06-24T05:49:17.643Z,14.0
2018-06-24T05:50:19.013Z,14.0
2018-06-24T05:51:20.406Z,14.1
2018-06-24T05:52:21.768Z,14.1
2018-06-24T05:53:23.128Z,14.0
2018-06-24T05:54:24.554Z,14.1
2018-06-24T05:55:25.863Z,14.2
2018-06-24T05:56:27.242Z,14.4
2018-06-24T05:57:28.601Z,14.3
2018-06-24T05:58:29.986Z,14.3
2018-06-24T05:59:31.351Z,14.3
2018-06-24T06:00:32.714Z,14.5
2018-06-24T06:01:34.093Z,14.6
2018-06-24T06:02:35.479Z,14.7
2018-06-24T06:03:36.887Z,14.7
2018-06-24T06:04:38.219Z,14.8
2018-06-24T06:05:39.589Z,14.8
2018-06-24T06:06:40.952Z,14.9
2018-06-24T06:07:43.016Z,14.8
2018-06-24T06:08:44.386Z,14.9
2018-06-24T06:09:45.753Z,14.9
2018-06-24T06:10:47.132Z,15.0
2018-06-24T06:11:48.498Z,15.1
2018-06-24T06:12:49.896Z,15.3
2018-06-24T06:13:51.281Z,15.2
2018-06-24T06:14:52.660Z,15.3
2018-06-24T06:15:54.029Z,15.4
2018-06-24T06:16:55.389Z,15.5
2018-06-24T06:17:56.777Z,15.7
2018-06-24T06:18:58.158Z,15.8
2018-06-24T06:19:59.529Z,16.0
2018-06-24T06:21:00.901Z,16.1
2018-06-24T06:22:02.307Z,16.2
2018-06-24T06:23:03.673Z,16.2
2018-06-24T06:24:05.040Z,16.3
2018-06-24T06:25:06.422Z,16.3
2018-06-24T06:26:07.793Z,16.4
2018-06-24T06:27:09.178Z,16.6
2018-06-24T06:28:10.543Z,16.6
2018-06-24T06:29:11.917Z,16.6
2018-06-24T06:30:13.354Z,16.6
2018-06-24T06:31:14.619Z,16.5
2018-06-24T06:32:16.004Z,16.6
2018-06-24T06:33:17.376Z,16.6
2018-06-24T06:34:18.750Z,16.6
2018-06-24T06:35:20.148Z,16.6
2018-06-24T06:36:21.523Z,16.7
2018-06-24T06:37:22.889Z,16.7
2018-06-24T06:38:24.267Z,16.7
2018-06-24T06:39:25.662Z,16.8
2018-06-24T06:40:27.025Z,16.8
2018-06-24T06:41:28.402Z,16.9
2018-06-24T06:42:29.783Z,16.8
2018-06-24T06:43:31.149Z,16.9
2018-06-24T06:44:32.519Z,16.9
2018-06-24T06:45:34.122Z,16.9
2018-06-24T06:46:35.247Z,17.0
2018-06-24T06:47:36.638Z,17.1
2018-06-24T06:48:38.035Z,17.1
2018-06-24T06:49:39.407Z,17.2
2018-06-24T06:50:40.794Z,17.2
2018-06-24T06:51:42.173Z,17.2
2018-06-24T06:52:43.550Z,17.3
2018-06-24T06:53:44.927Z,17.4
2018-06-24T06:54:46.303Z,17.3
2018-06-24T06:55:47.680Z,17.3
2018-06-24T06:56:49.082Z,17.4
2018-06-24T06:57:50.416Z,17.5
2018-06-24T06:58:51.752Z,17.6
2018-06-24T06:59:53.127Z,17.6
2018-06-24T07:00:54.502Z,17.7
2018-06-24T07:01:55.889Z,17.7
2018-06-24T07:02:57.278Z,17.8
2018-06-24T07:03:58.665Z,17.7
2018-06-24T07:05:00.050Z,17.7
2018-06-24T07:06:01.445Z,17.7
2018-06-24T07:07:02.818Z,17.7
2018-06-24T07:08:04.193Z,17.7
2018-06-24T07:09:05.565Z,17.9
2018-06-24T07:10:07.024Z,18.0
2018-06-24T07:11:08.418Z,18.0
2018-06-24T07:12:09.804Z,17.9
2018-06-24T07:13:11.192Z,17.8
2018-06-24T07:14:12.586Z,17.7
2018-06-24T07:15:13.969Z,17.6
2018-06-24T07:16:15.350Z,17.5
2018-06-24T07:17:16.730Z,17.6
2018-06-24T07:18:18.104Z,17.6
2018-06-24T07:19:19.532Z,17.5
2018-06-24T07:20:20.914Z,17.5
2018-06-24T07:21:22.323Z,17.5
2018-06-24T07:22:23.694Z,17.5
2018-06-24T07:23:25.088Z,17.6
2018-06-24T07:24:26.474Z,17.7
2018-06-24T07:25:27.856Z,17.8
2018-06-24T07:26:29.248Z,17.9
2018-06-24T07:27:30.627Z,18.0
2018-06-24T07:28:32.010Z,18.1
2018-06-24T07:29:33.414Z,18.3
2018-06-24T07:30:34.789Z,18.4
2018-06-24T07:31:36.169Z,18.4
2018-06-24T07:32:37.553Z,18.5
2018-06-24T07:33:38.971Z,18.6
2018-06-24T07:34:40.304Z,18.6
2018-06-24T07:35:41.680Z,18.6
2018-06-24T07:36:43.073Z,18.7
2018-06-24T07:37:44.475Z,18.8
2018-06-24T07:38:45.890Z,18.9
2018-06-24T07:39:47.289Z,18.9
2018-06-24T07:40:48.688Z,18.8
2018-06-24T07:41:50.149Z,18.9
2018-06-24T07:42:51.590Z,18.9
2018-06-24T07:43:53.063Z,19.0
2018-06-24T07:44:54.449Z,19.1
2018-06-24T07:45:55.875Z,19.0
2018-06-24T07:46:57.278Z,19.1
2018-06-24T07:47:58.722Z,19.1
2018-06-24T07:49:00.167Z,19.0
2018-06-24T07:50:01.572Z,19.0
2018-06-24T07:51:02.963Z,18.9
2018-06-24T07:52:04.374Z,18.8
2018-06-24T07:53:05.799Z,18.8
2018-06-24T07:54:07.229Z,18.9
2018-06-24T07:55:08.619Z,18.9
2018-06-24T07:56:10.006Z,18.8
2018-06-24T07:57:11.403Z,18.9
2018-06-24T07:58:12.785Z,18.9
2018-06-24T07:59:14.175Z,18.9
2018-06-24T08:00:15.569Z,18.9
2018-06-24T08:01:16.981Z,18.9
2018-06-24T08:02:18.391Z,19.0
2018-06-24T08:03:23.221Z,19.0
2018-06-24T08:04:24.511Z,19.1
2018-06-24T08:05:25.895Z,19.0
2018-06-24T08:06:27.305Z,19.1
2018-06-24T08:07:28.684Z,19.1
2018-06-24T08:08:30.068Z,19.1
2018-06-24T08:09:31.446Z,19.1
2018-06-24T08:10:32.829Z,19.1
2018-06-24T08:11:34.200Z,19.1
2018-06-24T08:12:35.584Z,18.9
2018-06-24T08:13:36.960Z,18.8
2018-06-24T08:14:38.375Z,18.8
2018-06-24T08:15:39.750Z,18.8
2018-06-24T08:16:41.115Z,18.8
2018-06-24T08:17:42.515Z,18.8
2018-06-24T08:18:43.881Z,18.8
2018-06-24T08:19:45.274Z,18.8
2018-06-24T08:20:46.655Z,18.7
2018-06-24T08:21:48.048Z,18.7
2018-06-24T08:22:50.407Z,18.6
2018-06-24T08:23:51.780Z,18.6
2018-06-24T08:24:53.155Z,18.7
2018-06-24T08:25:54.555Z,18.7
2018-06-24T08:26:55.941Z,18.9
2018-06-24T08:27:57.323Z,18.8
2018-06-24T08:28:58.735Z,18.9
2018-06-24T08:30:00.111Z,18.9
2018-06-24T08:31:01.495Z,18.9
2018-06-24T08:32:02.883Z,19.0
2018-06-24T08:33:04.265Z,19.1
2018-06-24T08:34:05.652Z,19.0
2018-06-24T08:35:07.034Z,19.1
2018-06-24T08:36:08.436Z,19.1
2018-06-24T08:37:09.791Z,19.1
2018-06-24T08:38:11.165Z,19.1
2018-06-24T08:39:12.561Z,19.0
2018-06-24T08:40:13.943Z,19.0
2018-06-24T08:41:15.311Z,18.9
2018-06-24T08:42:16.716Z,18.9
2018-06-24T08:43:18.101Z,18.9
2018-06-24T08:44:19.523Z,18.9
2018-06-24T08:45:20.895Z,18.9
2018-06-24T08:46:22.269Z,19.0
2018-06-24T08:47:23.804Z,19.0
2018-06-24T08:48:25.194Z,19.2
2018-06-24T08:49:26.581Z,19.1
2018-06-24T08:50:27.966Z,19.2
2018-06-24T08:51:29.331Z,19.2
2018-06-24T08:52:30.720Z,19.3
2018-06-24T08:53:32.089Z,19.4
2018-06-24T08:54:33.464Z,19.4
2018-06-24T08:55:34.846Z,19.3
2018-06-24T08:56:36.224Z,19.5
2018-06-24T08:57:37.640Z,19.5
2018-06-24T08:58:39.031Z,19.5
2018-06-24T08:59:40.407Z,19.6
2018-06-24T09:00:41.869Z,19.4
2018-06-24T09:01:43.155Z,19.5
2018-06-24T09:02:44.536Z,19.5
2018-06-24T09:03:45.912Z,19.6
2018-06-24T09:04:47.302Z,19.6
2018-06-24T09:05:48.680Z,19.6
2018-06-24T09:06:50.105Z,19.6
2018-06-24T09:07:51.481Z,19.6
2018-06-24T09:08:52.872Z,19.6
2018-06-24T09:09:54.312Z,19.7
2018-06-24T09:10:55.676Z,19.7
2018-06-24T09:11:57.071Z,19.9
2018-06-24T09:12:58.458Z,19.8
2018-06-24T09:13:59.884Z,19.8
2018-06-24T09:15:01.226Z,19.7
2018-06-24T09:16:02.623Z,19.7
2018-06-24T09:17:04.041Z,19.7
2018-06-24T09:18:05.420Z,19.7
2018-06-24T09:19:06.802Z,19.8
2018-06-24T09:20:08.196Z,19.9
2018-06-24T09:21:09.588Z,19.8
2018-06-24T09:22:10.977Z,20.0
2018-06-24T09:23:12.340Z,19.9
2018-06-24T09:24:13.778Z,20.0
2018-06-24T09:25:15.146Z,20.0
2018-06-24T09:26:16.533Z,20.1
2018-06-24T09:27:17.928Z,20.1
2018-06-24T09:28:20.045Z,20.1
2018-06-24T09:29:21.437Z,20.2
2018-06-24T09:30:22.811Z,20.2
2018-06-24T09:31:24.198Z,20.2
2018-06-24T09:32:25.576Z,20.2
2018-06-24T09:33:26.963Z,20.2
2018-06-24T09:34:28.337Z,20.3
2018-06-24T09:35:29.719Z,20.2
2018-06-24T09:36:31.110Z,20.2
2018-06-24T09:37:32.483Z,20.2
2018-06-24T09:38:33.863Z,20.2
2018-06-24T09:39:35.241Z,20.1
2018-06-24T09:40:36.612Z,20.1
2018-06-24T09:41:38.002Z,20.1
2018-06-24T09:42:39.386Z,20.2
2018-06-24T09:43:40.762Z,20.0
2018-06-24T09:44:42.170Z,19.9
2018-06-24T09:45:43.554Z,19.9
2018-06-24T09:46:44.939Z,20.0
2018-06-24T09:47:46.335Z,20.1
2018-06-24T09:48:47.717Z,20.2
2018-06-24T09:49:50.036Z,20.3
2018-06-24T09:50:51.408Z,20.4
2018-06-24T09:51:52.802Z,20.4
2018-06-24T09:52:54.195Z,20.5
2018-06-24T09:53:55.570Z,20.5
2018-06-24T09:54:56.945Z,20.5
2018-06-24T09:55:58.346Z,20.5
2018-06-24T09:56:59.718Z,20.5
2018-06-24T09:58:01.098Z,20.3
2018-06-24T09:59:02.528Z,20.3
2018-06-24T10:00:03.986Z,20.4
2018-06-24T10:01:05.373Z,20.4
2018-06-24T10:02:07.166Z,20.3
2018-06-24T10:03:08.537Z,20.3
2018-06-24T10:04:09.996Z,20.3
2018-06-24T10:05:11.393Z,20.2
2018-06-24T10:06:12.801Z,20.2
2018-06-24T10:07:14.186Z,20.2
2018-06-24T10:08:15.575Z,20.3
2018-06-24T10:09:16.956Z,20.4
2018-06-24T10:10:18.336Z,20.5
2018-06-24T10:11:20.647Z,20.5
2018-06-24T10:12:22.052Z,20.4
2018-06-24T10:13:23.616Z,20.4
2018-06-24T10:14:25.012Z,20.4
2018-06-24T10:15:26.441Z,20.4
2018-06-24T10:16:27.833Z,20.4
2018-06-24T10:17:29.281Z,20.4
2018-06-24T10:18:30.601Z,20.5
2018-06-24T10:19:31.997Z,20.5
2018-06-24T10:20:33.368Z,20.4
2018-06-24T10:21:34.751Z,20.4
2018-06-24T10:22:36.135Z,20.5
2018-06-24T10:23:37.507Z,20.5
2018-06-24T10:24:38.881Z,20.4
2018-06-24T10:25:40.259Z,20.5
2018-06-24T10:26:41.644Z,20.5
2018-06-24T10:27:43.012Z,20.5
2018-06-24T10:28:44.390Z,20.5
2018-06-24T10:29:45.768Z,20.6
2018-06-24T10:30:47.158Z,20.7
2018-06-24T10:31:48.532Z,20.7
2018-06-24T10:32:49.988Z,20.8
2018-06-24T10:33:51.381Z,20.9
2018-06-24T10:34:52.761Z,21.0
2018-06-24T10:35:54.218Z,21.0
2018-06-24T10:36:55.597Z,21.0
2018-06-24T10:37:56.979Z,21.1
2018-06-24T10:38:58.371Z,21.1
2018-06-24T10:39:59.756Z,21.2
2018-06-24T10:41:01.139Z,21.2
2018-06-24T10:42:02.516Z,21.2
2018-06-24T10:43:03.899Z,21.3
2018-06-24T10:44:05.292Z,21.3
2018-06-24T10:45:06.666Z,21.5
2018-06-24T10:46:08.038Z,21.5
2018-06-24T10:47:09.439Z,21.5
2018-06-24T10:48:10.841Z,21.6
2018-06-24T10:49:12.228Z,21.6
2018-06-24T10:50:13.622Z,21.6
2018-06-24T10:51:15.029Z,21.4
2018-06-24T10:52:16.411Z,21.4
2018-06-24T10:53:17.796Z,21.5
2018-06-24T10:54:19.865Z,21.7
2018-06-24T10:55:21.251Z,21.7
2018-06-24T10:56:22.631Z,21.9
2018-06-24T10:57:24.018Z,22.0
2018-06-24T10:58:25.398Z,22.1
2018-06-24T10:59:26.810Z,22.2
2018-06-24T11:00:28.208Z,22.5
2018-06-24T11:01:29.595Z,22.5
2018-06-24T11:02:30.998Z,22.5
2018-06-24T11:03:32.382Z,22.5
2018-06-24T11:04:33.762Z,22.6
2018-06-24T11:05:35.153Z,22.5
2018-06-24T11:06:36.540Z,22.5
2018-06-24T11:07:37.945Z,22.5
2018-06-24T11:08:39.341Z,22.5
2018-06-24T11:09:40.754Z,22.5
2018-06-24T11:10:42.151Z,22.5
2018-06-24T11:11:43.538Z,22.5
2018-06-24T11:12:44.970Z,22.4
2018-06-24T11:13:46.352Z,22.4
2018-06-24T11:14:47.757Z,22.3
2018-06-24T11:15:49.157Z,22.1
2018-06-24T11:16:50.602Z,22.1
2018-06-24T11:17:52.026Z,22.1
2018-06-24T11:18:53.407Z,22.1
2018-06-24T11:19:54.798Z,22.0
2018-06-24T11:20:56.191Z,22.0
2018-06-24T11:21:57.584Z,22.0
2018-06-24T11:22:58.972Z,22.0
2018-06-24T11:24:00.423Z,22.1
2018-06-24T11:25:01.811Z,22.1
2018-06-24T11:26:03.193Z,22.2
2018-06-24T11:27:04.594Z,22.4
2018-06-24T11:28:05.982Z,22.4
2018-06-24T11:29:07.382Z,22.4
2018-06-24T11:30:08.768Z,22.5
2018-06-24T11:31:10.165Z,22.7
2018-06-24T11:32:11.547Z,22.8
2018-06-24T11:33:12.946Z,22.9
2018-06-24T11:34:14.333Z,22.9
2018-06-24T11:35:15.723Z,22.9
2018-06-24T11:36:17.146Z,22.9
2018-06-24T11:37:18.526Z,22.8
2018-06-24T11:38:19.921Z,22.8
2018-06-24T11:39:21.319Z,22.8
2018-06-24T11:40:22.701Z,22.9
2018-06-24T11:41:24.101Z,23.1
2018-06-24T11:42:25.488Z,23.1
2018-06-24T11:43:26.887Z,23.2
2018-06-24T11:44:28.288Z,23.2
2018-06-24T11:45:29.694Z,23.2
2018-06-24T11:46:31.076Z,23.1
2018-06-24T11:47:32.466Z,22.9
2018-06-24T11:48:33.835Z,22.8
2018-06-24T11:49:35.244Z,22.9
2018-06-24T11:50:36.622Z,22.9
2018-06-24T11:51:38.006Z,22.9
2018-06-24T11:52:39.399Z,22.7
2018-06-24T11:53:40.788Z,22.8
2018-06-24T11:54:42.162Z,22.7
2018-06-24T11:55:43.568Z,22.6
2018-06-24T11:56:44.963Z,22.7
2018-06-24T11:57:46.348Z,22.7
2018-06-24T11:58:47.740Z,22.6
2018-06-24T11:59:49.138Z,22.7
2018-06-24T12:00:50.522Z,22.7
2018-06-24T12:01:54.345Z,22.8
2018-06-24T12:02:55.732Z,22.8
2018-06-24T12:03:57.123Z,22.8
2018-06-24T12:04:58.504Z,22.8
2018-06-24T12:05:59.896Z,22.9
2018-06-24T12:07:01.286Z,23.0
2018-06-24T12:08:02.672Z,23.2
2018-06-24T12:09:04.057Z,23.1
2018-06-24T12:10:08.840Z,23.2
2018-06-24T12:11:10.223Z,23.2
2018-06-24T12:12:12.338Z,23.3
2018-06-24T12:13:13.743Z,23.3
2018-06-24T12:14:16.247Z,23.3
2018-06-24T12:15:17.653Z,23.3
2018-06-24T12:16:20.658Z,23.3
2018-06-24T12:17:27.668Z,23.2
2018-06-24T12:18:26.057Z,23.3
2018-06-24T12:19:28.464Z,23.3
2018-06-24T12:20:29.853Z,23.3
2018-06-24T12:21:31.292Z,23.4
2018-06-24T12:22:32.677Z,23.4
2018-06-24T12:23:34.062Z,23.3
2018-06-24T12:24:35.449Z,23.5
2018-06-24T12:25:36.840Z,23.4
2018-06-24T12:26:38.237Z,23.4
2018-06-24T12:27:39.628Z,23.4
2018-06-24T12:28:41.026Z,23.4
2018-06-24T12:29:42.404Z,23.5
2018-06-24T12:30:43.801Z,23.6
2018-06-24T12:31:45.189Z,23.4
2018-06-24T12:32:46.589Z,23.5
2018-06-24T12:33:47.970Z,23.5
2018-06-24T12:34:55.308Z,23.5
2018-06-24T12:35:56.734Z,23.6
2018-06-24T12:36:58.121Z,23.5
2018-06-24T12:37:59.508Z,23.5
2018-06-24T12:39:00.892Z,23.3
2018-06-24T12:40:02.279Z,23.4
2018-06-24T12:41:03.674Z,23.3
2018-06-24T12:42:05.068Z,23.1
2018-06-24T12:43:06.464Z,23.1
2018-06-24T12:44:07.853Z,23.1
2018-06-24T12:45:09.242Z,23.0
2018-06-24T12:46:10.624Z,22.9
2018-06-24T12:47:11.998Z,22.9
2018-06-24T12:48:13.384Z,22.9
2018-06-24T12:49:14.762Z,23.0
2018-06-24T12:50:16.160Z,23.0
2018-06-24T12:51:17.542Z,22.9
2018-06-24T12:52:18.935Z,23.0
2018-06-24T12:53:20.325Z,23.0
2018-06-24T12:54:21.720Z,23.0
2018-06-24T12:55:23.124Z,23.0
2018-06-24T12:56:24.525Z,23.1
2018-06-24T12:57:25.889Z,23.1
2018-06-24T12:58:27.343Z,23.0
2018-06-24T12:59:28.984Z,23.0
2018-06-24T13:00:30.508Z,23.1
2018-06-24T13:01:31.424Z,23.1
2018-06-24T13:02:32.804Z,23.2
2018-06-24T13:03:34.181Z,23.2
2018-06-24T13:04:35.565Z,23.3
2018-06-24T13:05:36.943Z,23.3
2018-06-24T13:06:38.364Z,23.4
2018-06-24T13:07:39.870Z,23.4
2018-06-24T13:08:41.135Z,23.4
2018-06-24T13:09:42.549Z,23.3
2018-06-24T13:10:43.918Z,23.3
2018-06-24T13:11:45.321Z,23.3
2018-06-24T13:12:46.710Z,23.3
2018-06-24T13:13:48.089Z,23.4
2018-06-24T13:14:49.486Z,23.4
2018-06-24T13:15:50.868Z,23.4
2018-06-24T13:16:52.251Z,23.3
2018-06-24T13:17:53.648Z,23.1
2018-06-24T13:18:55.064Z,23.2
2018-06-24T13:19:56.449Z,23.3
2018-06-24T13:20:57.825Z,23.2
2018-06-24T13:21:59.223Z,23.1
2018-06-24T13:23:00.610Z,23.2
2018-06-24T13:24:02.850Z,23.1
2018-06-24T13:25:04.233Z,23.0
2018-06-24T13:26:05.617Z,22.9
2018-06-24T13:27:06.994Z,22.9
2018-06-24T13:28:08.378Z,23.0
2018-06-24T13:29:09.748Z,23.0
2018-06-24T13:30:11.133Z,23.0
2018-06-24T13:31:12.528Z,23.1
2018-06-24T13:32:14.530Z,23.1
2018-06-24T13:33:15.919Z,23.2
2018-06-24T13:34:17.305Z,23.0
2018-06-24T13:35:18.684Z,23.1
2018-06-24T13:36:20.063Z,23.1
2018-06-24T13:37:21.448Z,23.0